Time;durP1;ratioP1;P1;durP2;ratioP2;P2;SDS_P1;SDS_P2;PMS_P1;PMS_P2;Temp;Humidity;BMP_temperature;BMP_pressure;BME280_temperature;BME280_humidity;BME280_pressure;Samples;Min_cycle;Max_cycle;Signal;HPM_P1;HPM_P2
2022/10/07 00:00:21;;;;;;;8.93;3.40;;;;;;;;;;5016128;28;20026;-56
2022/10/07 00:02:46;;;;;;;8.45;3.70;;;;;;;;;;5015865;28;20034;-52
2022/10/07 00:05:11;;;;;;;7.68;3.20;;;;;;;;;;5013633;28;20050;-52
2022/10/07 00:07:37;;;;;;;9.48;3.20;;;;;;;;;;5008281;28;20414;-53
2022/10/07 00:10:03;;;;;;;8.68;3.45;;;;;;;;;;5018653;28;20045;-51
2022/10/07 00:12:28;;;;;;;7.43;3.30;;;;;;;;;;5014477;28;20045;-55
2022/10/07 00:14:53;;;;;;;9.45;3.65;;;;;;;;;;5019666;28;20053;-55
2022/10/07 00:17:19;;;;;;;6.40;2.80;;;;;;;;;;5018789;28;20038;-55
2022/10/07 00:19:45;;;;;;;5.63;2.85;;;;;;;;;;5011086;28;20042;-56
2022/10/07 00:22:10;;;;;;;8.15;3.60;;;;;;;;;;5009685;28;20057;-54
2022/10/07 00:24:36;;;;;;;8.48;3.35;;;;;;;;;;5015517;28;20072;-52
2022/10/07 00:27:01;;;;;;;7.47;2.78;;;;;;;;;;5014401;28;20049;-54
2022/10/07 00:29:27;;;;;;;9.65;2.80;;;;;;;;;;5014930;28;20061;-56
2022/10/07 00:31:53;;;;;;;9.40;3.03;;;;;;;;;;5015344;28;20092;-54
2022/10/07 00:34:18;;;;;;;7.53;3.05;;;;;;;;;;5015136;28;20037;-54
2022/10/07 00:36:44;;;;;;;5.93;2.88;;;;;;;;;;5008765;28;20385;-54
2022/10/07 00:39:12;;;;;;;6.95;2.78;;;;;;;;;;5014972;28;20129;-54
2022/10/07 00:41:40;;;;;;;6.95;2.95;;;;;;;;;;5013295;28;20057;-55
2022/10/07 00:44:31;;;;;;;6.90;2.97;;;;;;;;;;5019236;28;20034;-57
2022/10/07 00:47:23;;;;;;;5.85;3.03;;;;;;;;;;5001727;28;20050;-55
2022/10/07 00:50:13;;;;;;;7.70;2.75;;;;;;;;;;5005996;28;20042;-55
2022/10/07 00:52:48;;;;;;;7.05;2.88;;;;;;;;;;5013790;28;20126;-57
2022/10/07 00:55:17;;;;;;;5.10;2.25;;;;;;;;;;5014495;28;20088;-55
2022/10/07 00:57:43;;;;;;;6.25;2.70;;;;;;;;;;5007650;28;20491;-55
2022/10/07 01:00:10;;;;;;;6.13;2.63;;;;;;;;;;5008016;28;20083;-57
2022/10/07 01:02:35;;;;;;;5.32;2.60;;;;;;;;;;5010580;28;20453;-56
2022/10/07 01:05:04;;;;;;;5.18;2.47;;;;;;;;;;5012477;28;20054;-54
2022/10/07 01:07:30;;;;;;;5.72;2.40;;;;;;;;;;5013483;28;20088;-56
2022/10/07 01:09:58;;;;;;;7.75;2.60;;;;;;;;;;5004396;28;20458;-55
2022/10/07 01:12:44;;;;;;;4.10;2.05;;;;;;;;;;5013393;28;20117;-56
2022/10/07 01:15:23;;;;;;;6.38;2.55;;;;;;;;;;5013643;28;20033;-52
2022/10/07 01:17:57;;;;;;;5.82;2.00;;;;;;;;;;5012772;28;20065;-55
2022/10/07 01:20:44;;;;;;;4.15;2.22;;;;;;;;;;5017992;28;20045;-56
2022/10/07 01:23:31;;;;;;;5.30;2.42;;;;;;;;;;5008304;28;20112;-54
2022/10/07 01:26:21;;;;;;;5.22;2.20;;;;;;;;;;5012169;28;20448;-56
2022/10/07 01:29:28;;;;;;;5.47;2.00;;;;;;;;;;5006230;28;20083;-54
2022/10/07 01:32:00;;;;;;;6.50;2.15;;;;;;;;;;5011832;28;20101;-56
2022/10/07 01:34:26;;;;;;;5.07;2.08;;;;;;;;;;5018912;28;20083;-56
2022/10/07 01:36:53;;;;;;;5.32;2.10;;;;;;;;;;5016548;28;20029;-55
2022/10/07 01:39:23;;;;;;;4.47;1.98;;;;;;;;;;5008431;28;20386;-50
2022/10/07 01:41:49;;;;;;;6.70;2.38;;;;;;;;;;5004319;28;20093;-55
2022/10/07 01:44:15;;;;;;;5.20;2.20;;;;;;;;;;5015237;28;20034;-51
2022/10/07 01:46:42;;;;;;;4.00;1.90;;;;;;;;;;5018355;28;20111;-53
2022/10/07 01:49:08;;;;;;;4.43;2.13;;;;;;;;;;5014302;28;20073;-56
2022/10/07 01:51:36;;;;;;;4.65;1.92;;;;;;;;;;5006927;28;20026;-51
2022/10/07 01:54:17;;;;;;;5.30;2.00;;;;;;;;;;5026915;28;20384;-54
2022/10/07 01:56:45;;;;;;;6.72;1.80;;;;;;;;;;5004856;28;20470;-54
2022/10/07 01:59:31;;;;;;;5.22;2.03;;;;;;;;;;5007834;28;20464;-50
2022/10/07 02:02:09;;;;;;;4.40;1.80;;;;;;;;;;5013680;28;20401;-52
2022/10/07 02:04:49;;;;;;;5.72;1.80;;;;;;;;;;5013380;28;20053;-55
2022/10/07 02:07:43;;;;;;;5.72;2.22;;;;;;;;;;5000012;28;20438;-53
2022/10/07 02:10:35;;;;;;;3.55;1.77;;;;;;;;;;5026058;28;20042;-53
2022/10/07 02:13:11;;;;;;;4.15;1.70;;;;;;;;;;5016738;28;20049;-52
2022/10/07 02:16:16;;;;;;;3.40;1.60;;;;;;;;;;5021791;28;20497;-53
2022/10/07 02:18:47;;;;;;;4.38;1.73;;;;;;;;;;5009916;28;20045;-53
2022/10/07 02:21:12;;;;;;;3.38;1.90;;;;;;;;;;5015520;28;20042;-53
2022/10/07 02:23:40;;;;;;;5.20;1.83;;;;;;;;;;5016306;28;20033;-50
2022/10/07 02:26:07;;;;;;;5.82;2.15;;;;;;;;;;5031765;28;20049;-52
2022/10/07 02:28:34;;;;;;;4.53;1.50;;;;;;;;;;5019291;28;20022;-50
2022/10/07 02:31:01;;;;;;;4.25;1.70;;;;;;;;;;5013321;28;20026;-53
2022/10/07 02:33:28;;;;;;;4.07;1.70;;;;;;;;;;5012449;28;20561;-56
2022/10/07 02:35:59;;;;;;;3.40;1.58;;;;;;;;;;5015370;28;20029;-55
2022/10/07 02:38:25;;;;;;;4.40;1.65;;;;;;;;;;5015251;28;20041;-56
2022/10/07 02:40:57;;;;;;;3.40;1.48;;;;;;;;;;5006563;28;20081;-55
2022/10/07 02:43:38;;;;;;;3.80;1.60;;;;;;;;;;5007098;28;20037;-53
2022/10/07 02:46:08;;;;;;;4.53;1.40;;;;;;;;;;5018395;28;20038;-55
2022/10/07 02:48:38;;;;;;;4.07;1.60;;;;;;;;;;5009890;28;20432;-54
2022/10/07 02:51:06;;;;;;;4.53;1.60;;;;;;;;;;5016675;28;20036;-55
2022/10/07 02:53:32;;;;;;;3.70;1.52;;;;;;;;;;5016018;28;20034;-55
2022/10/07 02:55:59;;;;;;;5.03;1.60;;;;;;;;;;5013762;28;20133;-52
2022/10/07 02:58:25;;;;;;;4.28;1.73;;;;;;;;;;5007499;28;20445;-55
2022/10/07 03:00:53;;;;;;;4.03;1.40;;;;;;;;;;5014194;28;20033;-55
2022/10/07 03:03:19;;;;;;;2.97;1.30;;;;;;;;;;5014679;28;20084;-50
2022/10/07 03:05:47;;;;;;;4.05;1.30;;;;;;;;;;5008222;28;20039;-52
2022/10/07 03:08:12;;;;;;;3.72;1.50;;;;;;;;;;5012706;28;20125;-56
2022/10/07 03:10:38;;;;;;;3.72;1.55;;;;;;;;;;5011680;28;20117;-50
2022/10/07 03:13:04;;;;;;;3.80;1.50;;;;;;;;;;5010838;28;20448;-53
2022/10/07 03:15:31;;;;;;;2.58;1.17;;;;;;;;;;5018073;28;20037;-50
2022/10/07 03:17:56;;;;;;;3.08;1.33;;;;;;;;;;5009278;28;20425;-53
2022/10/07 03:20:22;;;;;;;3.75;1.60;;;;;;;;;;5011759;28;20034;-54
2022/10/07 03:22:47;;;;;;;3.63;1.60;;;;;;;;;;5011019;28;20042;-55
2022/10/07 03:25:14;;;;;;;3.33;1.40;;;;;;;;;;5011376;28;20117;-52
2022/10/07 03:27:41;;;;;;;4.35;1.60;;;;;;;;;;5015102;28;20042;-53
2022/10/07 03:30:07;;;;;;;4.00;1.60;;;;;;;;;;5016111;28;20558;-52
2022/10/07 03:32:33;;;;;;;3.63;1.33;;;;;;;;;;5018302;28;20366;-52
2022/10/07 03:34:58;;;;;;;3.65;1.40;;;;;;;;;;5009630;28;20045;-55
2022/10/07 03:37:24;;;;;;;3.83;1.35;;;;;;;;;;5009896;28;20038;-55
2022/10/07 03:39:50;;;;;;;2.50;1.13;;;;;;;;;;5007935;28;20033;-53
2022/10/07 03:42:15;;;;;;;4.80;1.55;;;;;;;;;;5014842;28;20525;-55
2022/10/07 03:44:41;;;;;;;3.25;1.30;;;;;;;;;;5008730;28;20062;-50
2022/10/07 03:47:07;;;;;;;2.85;1.08;;;;;;;;;;5015364;28;20061;-53
2022/10/07 03:49:33;;;;;;;3.22;1.23;;;;;;;;;;5014317;28;20037;-52
2022/10/07 03:51:59;;;;;;;4.20;1.55;;;;;;;;;;5015075;28;20084;-55
2022/10/07 03:54:25;;;;;;;3.00;1.23;;;;;;;;;;5023388;28;20041;-52
2022/10/07 03:56:50;;;;;;;2.55;1.13;;;;;;;;;;5018286;28;20688;-54
2022/10/07 03:59:16;;;;;;;2.40;1.20;;;;;;;;;;5013735;28;20042;-53
2022/10/07 04:01:41;;;;;;;5.53;1.30;;;;;;;;;;5012519;28;20038;-51
2022/10/07 04:04:07;;;;;;;2.63;1.30;;;;;;;;;;5015219;28;20033;-56
2022/10/07 04:06:33;;;;;;;4.35;1.23;;;;;;;;;;5016612;28;20561;-55
2022/10/07 04:08:59;;;;;;;2.97;1.40;;;;;;;;;;5017584;28;20116;-53
2022/10/07 04:11:25;;;;;;;2.65;1.02;;;;;;;;;;5014880;28;20117;-55
2022/10/07 04:13:51;;;;;;;3.50;1.30;;;;;;;;;;5015563;28;20037;-56
2022/10/07 04:16:16;;;;;;;2.63;1.10;;;;;;;;;;5006637;28;20069;-50
2022/10/07 04:18:42;;;;;;;4.22;1.50;;;;;;;;;;5011844;28;20107;-53
2022/10/07 04:21:08;;;;;;;2.33;1.10;;;;;;;;;;5015499;28;20038;-51
2022/10/07 04:23:34;;;;;;;2.75;1.17;;;;;;;;;;5015007;28;20454;-55
2022/10/07 04:26:00;;;;;;;3.95;1.35;;;;;;;;;;5009064;28;20060;-54
2022/10/07 04:28:25;;;;;;;2.58;1.10;;;;;;;;;;5002506;28;20603;-49
2022/10/07 04:30:52;;;;;;;2.75;1.20;;;;;;;;;;5022509;28;20038;-55
2022/10/07 04:33:20;;;;;;;3.33;1.10;;;;;;;;;;5011024;28;20099;-54
2022/10/07 04:35:45;;;;;;;3.38;1.23;;;;;;;;;;5021783;28;20050;-51
2022/10/07 04:38:12;;;;;;;4.30;1.23;;;;;;;;;;5013551;28;20101;-53
2022/10/07 04:40:39;;;;;;;2.83;1.10;;;;;;;;;;5000216;28;20042;-50
2022/10/07 04:43:24;;;;;;;2.42;1.05;;;;;;;;;;5003274;28;20042;-54
2022/10/07 04:46:12;;;;;;;3.28;1.20;;;;;;;;;;5015714;28;20026;-54
2022/10/07 04:48:37;;;;;;;1.70;0.93;;;;;;;;;;5010883;28;20048;-52
2022/10/07 04:51:05;;;;;;;2.22;0.95;;;;;;;;;;5003880;28;20030;-53
2022/10/07 04:53:30;;;;;;;2.92;1.20;;;;;;;;;;5003532;28;20154;-55
2022/10/07 04:55:56;;;;;;;1.70;0.93;;;;;;;;;;5004578;28;20493;-52
2022/10/07 04:58:22;;;;;;;2.08;0.98;;;;;;;;;;5011823;28;20104;-57
2022/10/07 05:00:50;;;;;;;2.10;1.00;;;;;;;;;;5014685;28;20115;-51
2022/10/07 05:03:17;;;;;;;3.75;1.15;;;;;;;;;;5004989;28;20050;-55
2022/10/07 05:05:45;;;;;;;1.80;0.88;;;;;;;;;;5015015;28;20049;-51
2022/10/07 05:08:11;;;;;;;3.13;1.02;;;;;;;;;;5013786;28;20107;-49
2022/10/07 05:10:38;;;;;;;2.53;1.20;;;;;;;;;;5003102;28;20145;-54
2022/10/07 05:13:05;;;;;;;3.00;1.05;;;;;;;;;;4998088;28;20030;-56
2022/10/07 05:15:31;;;;;;;2.75;1.13;;;;;;;;;;5003773;28;20044;-55
2022/10/07 05:17:56;;;;;;;2.13;1.00;;;;;;;;;;5014168;28;20041;-50
2022/10/07 05:20:21;;;;;;;4.30;1.13;;;;;;;;;;5013707;28;20517;-56
2022/10/07 05:22:47;;;;;;;3.40;1.20;;;;;;;;;;5013162;28;20037;-51
2022/10/07 05:25:13;;;;;;;2.30;1.10;;;;;;;;;;5013732;28;20037;-54
2022/10/07 05:27:39;;;;;;;2.17;0.98;;;;;;;;;;5013188;28;20050;-53
2022/10/07 05:30:06;;;;;;;2.85;1.15;;;;;;;;;;5011286;28;20441;-54
2022/10/07 05:32:31;;;;;;;2.80;1.17;;;;;;;;;;5033490;28;20045;-54
2022/10/07 05:34:56;;;;;;;2.35;0.90;;;;;;;;;;5009803;28;20622;-51
2022/10/07 05:37:22;;;;;;;2.45;1.08;;;;;;;;;;5012814;28;20034;-53
2022/10/07 05:39:47;;;;;;;2.45;1.08;;;;;;;;;;5015024;28;20037;-55
2022/10/07 05:42:13;;;;;;;2.53;1.00;;;;;;;;;;5004765;28;20161;-53
2022/10/07 05:44:38;;;;;;;3.00;1.05;;;;;;;;;;5012350;28;20045;-53
2022/10/07 05:47:04;;;;;;;1.73;0.82;;;;;;;;;;5002791;28;20041;-53
2022/10/07 05:49:29;;;;;;;2.13;0.85;;;;;;;;;;5005085;28;20044;-55
2022/10/07 05:51:55;;;;;;;2.63;0.95;;;;;;;;;;5003413;28;20112;-52
2022/10/07 05:54:21;;;;;;;2.88;1.02;;;;;;;;;;5010503;28;20065;-55
2022/10/07 05:56:47;;;;;;;2.10;1.02;;;;;;;;;;5010771;28;20029;-52
2022/10/07 05:59:12;;;;;;;2.42;1.02;;;;;;;;;;5013755;28;20066;-53
2022/10/07 06:01:38;;;;;;;1.85;0.95;;;;;;;;;;5014177;28;20046;-52
2022/10/07 06:04:06;;;;;;;5.13;1.13;;;;;;;;;;5017607;28;20033;-56
2022/10/07 06:06:34;;;;;;;2.63;1.10;;;;;;;;;;5016357;28;20054;-53
2022/10/07 06:13:06;;;;;;;2.78;1.10;;;;;;;;;;5019556;28;20077;-57
2022/10/07 06:14:28;;;;;;;2.00;1.02;;;;;;;;;;5011173;28;20125;-61
2022/10/07 06:16:54;;;;;;;1.83;0.98;;;;;;;;;;5006732;28;20109;-59
2022/10/07 06:19:22;;;;;;;2.67;1.00;;;;;;;;;;5011673;28;20052;-60
2022/10/07 06:21:48;;;;;;;2.55;0.85;;;;;;;;;;5011160;28;20301;-58
2022/10/07 06:24:13;;;;;;;2.22;0.90;;;;;;;;;;5020073;28;20045;-58
2022/10/07 06:26:41;;;;;;;2.28;0.80;;;;;;;;;;5013666;28;20037;-57
2022/10/07 06:29:07;;;;;;;2.17;1.05;;;;;;;;;;5018490;28;20032;-58
2022/10/07 06:31:32;;;;;;;2.80;1.00;;;;;;;;;;5013004;28;20564;-61
2022/10/07 06:33:58;;;;;;;3.28;1.10;;;;;;;;;;5019380;28;20088;-58
2022/10/07 06:36:23;;;;;;;3.13;0.90;;;;;;;;;;5017557;28;20030;-60
2022/10/07 06:38:50;;;;;;;1.45;0.80;;;;;;;;;;5016320;28;20030;-61
2022/10/07 06:41:16;;;;;;;2.30;0.95;;;;;;;;;;5004807;28;20116;-61
2022/10/07 06:43:43;;;;;;;2.03;0.90;;;;;;;;;;5001377;28;20126;-60
2022/10/07 06:46:15;;;;;;;3.15;1.05;;;;;;;;;;5016359;28;20026;-60
2022/10/07 06:48:41;;;;;;;3.10;1.00;;;;;;;;;;5015813;28;20548;-60
2022/10/07 06:51:11;;;;;;;2.28;0.80;;;;;;;;;;5015917;28;20026;-61
2022/10/07 06:53:37;;;;;;;1.75;0.93;;;;;;;;;;5015752;28;20037;-61
2022/10/07 06:56:03;;;;;;;2.00;0.70;;;;;;;;;;5014615;28;20088;-61
2022/10/07 06:58:29;;;;;;;2.22;0.90;;;;;;;;;;5004656;28;20517;-61
2022/10/07 07:00:55;;;;;;;2.33;0.90;;;;;;;;;;5012470;28;20067;-60
2022/10/07 07:03:21;;;;;;;7.05;1.00;;;;;;;;;;5013312;28;20120;-61
2022/10/07 07:05:47;;;;;;;2.08;0.80;;;;;;;;;;5017549;28;20081;-60
2022/10/07 07:08:14;;;;;;;2.30;0.93;;;;;;;;;;5012480;28;20397;-62
2022/10/07 07:10:41;;;;;;;4.65;1.00;;;;;;;;;;5016167;28;20122;-59
2022/10/07 07:13:08;;;;;;;2.83;1.08;;;;;;;;;;5015784;28;20473;-59
2022/10/07 07:15:34;;;;;;;4.75;0.80;;;;;;;;;;5023539;28;20042;-60
2022/10/07 07:18:00;;;;;;;3.40;0.90;;;;;;;;;;5001142;28;20056;-56
2022/10/07 07:20:25;;;;;;;2.13;0.80;;;;;;;;;;5012626;28;21615;-59
2022/10/07 07:22:51;;;;;;;4.05;1.00;;;;;;;;;;5015497;28;20044;-59
2022/10/07 07:25:18;;;;;;;172.60;7.40;;;;;;;;;;5009122;28;20042;-58
2022/10/07 07:27:45;;;;;;;7.40;1.30;;;;;;;;;;5009262;28;20124;-63
2022/10/07 07:30:12;;;;;;;14.95;1.65;;;;;;;;;;5012820;28;20374;-66
2022/10/07 07:32:38;;;;;;;4.53;1.20;;;;;;;;;;5002917;28;20037;-66
2022/10/07 07:35:05;;;;;;;7.25;0.98;;;;;;;;;;5000577;28;20050;-66
2022/10/07 07:37:30;;;;;;;2.28;0.90;;;;;;;;;;5012064;28;20037;-67
2022/10/07 07:39:56;;;;;;;1.73;0.77;;;;;;;;;;5001309;28;20121;-63
2022/10/07 07:42:22;;;;;;;6.05;1.10;;;;;;;;;;5001504;28;20037;-61
2022/10/07 07:44:48;;;;;;;8.27;0.90;;;;;;;;;;4997887;28;20034;-61
2022/10/07 07:47:17;;;;;;;6.60;1.30;;;;;;;;;;5008092;28;20042;-62
2022/10/07 07:49:43;;;;;;;1.85;0.90;;;;;;;;;;5002773;28;20062;-63
2022/10/07 07:52:08;;;;;;;2.65;0.93;;;;;;;;;;5010265;28;20073;-62
2022/10/07 07:54:36;;;;;;;2.80;0.90;;;;;;;;;;5007778;28;20674;-62
2022/10/07 07:57:02;;;;;;;2.97;0.90;;;;;;;;;;5013684;28;20117;-64
2022/10/07 07:59:30;;;;;;;2.38;0.90;;;;;;;;;;5001995;28;20090;-63
2022/10/07 08:01:56;;;;;;;2.45;0.90;;;;;;;;;;5011113;28;20448;-65
2022/10/07 08:04:22;;;;;;;7.25;0.90;;;;;;;;;;5011812;28;20524;-64
2022/10/07 08:06:48;;;;;;;1.52;0.60;;;;;;;;;;5009524;28;20049;-61
2022/10/07 08:09:13;;;;;;;4.97;1.45;;;;;;;;;;5006514;28;20109;-62
2022/10/07 08:11:40;;;;;;;16.20;1.40;;;;;;;;;;5012466;28;20091;-62
2022/10/07 08:14:06;;;;;;;6.72;1.95;;;;;;;;;;5011823;28;20149;-62
2022/10/07 08:16:33;;;;;;;11.45;1.83;;;;;;;;;;5012978;28;20532;-61
2022/10/07 08:18:59;;;;;;;10.38;1.50;;;;;;;;;;5013910;28;20064;-69
2022/10/07 08:21:27;;;;;;;13.75;1.27;;;;;;;;;;5011850;28;20041;-62
2022/10/07 08:23:57;;;;;;;8.32;1.15;;;;;;;;;;5012541;28;20045;-64
2022/10/07 08:26:23;;;;;;;3.95;1.30;;;;;;;;;;5005010;28;20088;-62
2022/10/07 08:28:49;;;;;;;4.57;1.00;;;;;;;;;;5011769;28;20049;-61
2022/10/07 08:31:17;;;;;;;7.13;1.10;;;;;;;;;;5011816;28;20390;-61
2022/10/07 08:33:44;;;;;;;7.88;1.27;;;;;;;;;;5012055;28;20078;-65
2022/10/07 08:36:17;;;;;;;4.78;1.63;;;;;;;;;;5008426;28;20107;-64
2022/10/07 08:38:44;;;;;;;10.07;1.17;;;;;;;;;;5011929;28;20382;-66
2022/10/07 08:41:35;;;;;;;6.40;1.60;;;;;;;;;;5011265;28;20038;-64
2022/10/07 08:44:12;;;;;;;9.15;1.60;;;;;;;;;;4997705;28;20086;-63
2022/10/07 08:46:43;;;;;;;8.75;1.30;;;;;;;;;;5008894;28;20100;-63
2022/10/07 08:49:12;;;;;;;6.60;1.30;;;;;;;;;;5008128;28;20117;-62
2022/10/07 08:51:42;;;;;;;4.22;1.10;;;;;;;;;;5008611;28;20037;-62
2022/10/07 08:54:12;;;;;;;8.40;1.20;;;;;;;;;;5009324;28;20042;-63
2022/10/07 08:56:37;;;;;;;7.97;1.55;;;;;;;;;;5005127;28;20124;-71
2022/10/07 08:59:27;;;;;;;10.90;1.17;;;;;;;;;;5006538;28;21028;-61
2022/10/07 09:02:29;;;;;;;4.50;1.30;;;;;;;;;;5002665;28;20056;-61
2022/10/07 09:05:13;;;;;;;5.50;1.02;;;;;;;;;;5010120;28;20047;-61
2022/10/07 09:07:46;;;;;;;5.13;1.35;;;;;;;;;;5007032;28;20042;-61
2022/10/07 09:10:17;;;;;;;;;;;;;;;;;;5010369;28;20042;-61
2022/10/07 09:12:47;;;;;;;7.15;1.25;;;;;;;;;;5000900;28;19913;-61
2022/10/07 09:15:43;;;;;;;5.65;1.27;;;;;;;;;;5009134;28;20469;-61
2022/10/07 09:18:15;;;;;;;3.45;1.13;;;;;;;;;;5010180;28;20393;-61
2022/10/07 09:20:44;;;;;;;5.00;1.00;;;;;;;;;;4996938;28;20050;-61
2022/10/07 09:23:14;;;;;;;3.30;1.13;;;;;;;;;;4999776;28;20054;-61
2022/10/07 09:25:40;;;;;;;3.55;1.00;;;;;;;;;;5005990;28;20042;-62
2022/10/07 09:28:14;;;;;;;4.50;1.15;;;;;;;;;;5009819;28;20064;-61
2022/10/07 09:30:41;;;;;;;3.75;1.20;;;;;;;;;;4999978;28;20125;-62
2022/10/07 09:33:13;;;;;;;5.00;1.13;;;;;;;;;;4997207;28;20042;-61
2022/10/07 09:35:39;;;;;;;13.97;1.53;;;;;;;;;;5008283;28;20271;-61
2022/10/07 09:38:08;;;;;;;7.28;1.08;;;;;;;;;;5010481;28;20454;-61
2022/10/07 09:40:33;;;;;;;3.17;0.90;;;;;;;;;;5010233;28;20117;-63
2022/10/07 09:42:59;;;;;;;3.05;1.00;;;;;;;;;;4995216;28;20129;-61
2022/10/07 09:45:32;;;;;;;3.97;1.30;;;;;;;;;;5008750;28;20167;-62
2022/10/07 09:48:07;;;;;;;5.63;1.03;;;;;;;;;;5010154;28;20079;-61
2022/10/07 09:50:38;;;;;;;3.92;0.77;;;;;;;;;;5009999;28;20046;-61
2022/10/07 09:53:14;;;;;;;5.45;1.27;;;;;;;;;;5006824;28;20037;-60
2022/10/07 09:55:41;;;;;;;4.75;1.00;;;;;;;;;;5003408;28;20448;-61
2022/10/07 09:58:23;;;;;;;4.63;1.00;;;;;;;;;;5012545;28;20073;-73
2022/10/07 10:00:50;;;;;;;4.30;0.90;;;;;;;;;;5013123;28;20046;-76
2022/10/07 10:03:16;;;;;;;3.90;1.02;;;;;;;;;;4998220;28;20033;-80
2022/10/07 10:05:56;;;;;;;7.22;1.33;;;;;;;;;;5015272;28;20054;-61
2022/10/07 10:08:33;;;;;;;2.92;1.00;;;;;;;;;;5023921;28;20371;-61
2022/10/07 10:11:21;;;;;;;2.22;0.90;;;;;;;;;;5003049;28;20371;-66
2022/10/07 10:13:49;;;;;;;4.07;1.13;;;;;;;;;;5009361;28;20437;-61
2022/10/07 10:16:39;;;;;;;4.93;0.90;;;;;;;;;;5004363;28;20042;-61
2022/10/07 10:19:20;;;;;;;3.20;1.00;;;;;;;;;;5012974;28;20042;-60
2022/10/07 10:21:57;;;;;;;6.60;1.13;;;;;;;;;;5003783;28;20041;-61
2022/10/07 10:27:17;;;;;;;1.90;0.85;;;;;;;;;;5012292;28;20102;-61
2022/10/07 10:29:55;;;;;;;3.13;0.82;;;;;;;;;;4997599;28;20038;-61
2022/10/07 10:32:59;;;;;;;3.25;0.73;;;;;;;;;;5010860;28;20093;-61
2022/10/07 10:35:30;;;;;;;3.65;1.00;;;;;;;;;;5019399;28;20038;-62
2022/10/07 10:38:32;;;;;;;4.13;0.90;;;;;;;;;;5001521;28;20048;-61
2022/10/07 10:41:10;;;;;;;3.05;0.95;;;;;;;;;;5005024;28;20553;-61
2022/10/07 10:43:53;;;;;;;3.67;0.80;;;;;;;;;;5006415;28;20050;-61
2022/10/07 10:46:30;;;;;;;2.15;0.90;;;;;;;;;;5012568;28;20042;-61
2022/10/07 10:49:09;;;;;;;4.28;0.90;;;;;;;;;;5003386;28;20425;-62
2022/10/07 10:51:47;;;;;;;1.65;0.60;;;;;;;;;;5004597;28;20125;-61
2022/10/07 10:54:30;;;;;;;6.00;1.00;;;;;;;;;;5010052;28;20037;-62
2022/10/07 10:57:20;;;;;;;2.20;0.77;;;;;;;;;;5011820;28;20046;-60
2022/10/07 11:00:04;;;;;;;8.07;1.05;;;;;;;;;;5009394;28;20280;-61
2022/10/07 11:02:43;;;;;;;2.70;0.80;;;;;;;;;;5004062;28;20401;-61
2022/10/07 11:05:17;;;;;;;7.78;1.20;;;;;;;;;;4994442;28;20054;-61
2022/10/07 11:08:00;;;;;;;6.20;0.90;;;;;;;;;;5004271;28;20045;-61
2022/10/07 11:10:56;;;;;;;4.57;1.00;;;;;;;;;;4992385;28;20493;-62
2022/10/07 11:13:39;;;;;;;1.98;0.70;;;;;;;;;;4997362;28;20566;-60
2022/10/07 11:16:05;;;;;;;6.32;0.95;;;;;;;;;;5012614;28;20050;-60
2022/10/07 11:18:41;;;;;;;2.88;0.93;;;;;;;;;;5001841;28;21056;-60
2022/10/07 11:21:11;;;;;;;2.30;0.90;;;;;;;;;;5003632;28;20052;-60
2022/10/07 11:23:40;;;;;;;3.75;0.88;;;;;;;;;;5001444;28;20046;-61
2022/10/07 11:26:32;;;;;;;5.03;1.00;;;;;;;;;;5010951;28;20041;-61
2022/10/07 11:29:01;;;;;;;2.53;1.13;;;;;;;;;;5002928;28;20053;-60
2022/10/07 11:31:32;;;;;;;5.18;0.88;;;;;;;;;;5011871;28;20046;-61
2022/10/07 11:34:07;;;;;;;2.35;0.98;;;;;;;;;;5001003;28;20034;-61
2022/10/07 11:36:45;;;;;;;2.78;0.80;;;;;;;;;;5011144;28;20505;-61
2022/10/07 11:39:10;;;;;;;4.80;1.40;;;;;;;;;;5011728;28;20377;-60
2022/10/07 11:41:47;;;;;;;3.75;0.90;;;;;;;;;;5011353;28;20132;-61
2022/10/07 11:44:18;;;;;;;3.00;0.93;;;;;;;;;;5011595;28;20512;-60
2022/10/07 11:46:45;;;;;;;3.58;0.77;;;;;;;;;;5002984;28;20045;-68
2022/10/07 11:49:11;;;;;;;2.20;0.80;;;;;;;;;;5010571;28;20117;-61
2022/10/07 11:52:10;;;;;;;4.15;0.80;;;;;;;;;;4998732;28;20363;-60
2022/10/07 11:54:42;;;;;;;3.58;1.33;;;;;;;;;;5001500;28;20502;-60
2022/10/07 11:57:18;;;;;;;4.32;0.90;;;;;;;;;;5004618;28;20034;-60
2022/10/07 11:59:49;;;;;;;2.53;0.85;;;;;;;;;;5009449;28;20053;-60
2022/10/07 12:02:42;;;;;;;3.80;1.33;;;;;;;;;;5009347;28;20030;-60
2022/10/07 12:05:33;;;;;;;4.60;1.00;;;;;;;;;;5003092;28;20050;-60
2022/10/07 12:08:17;;;;;;;2.65;1.00;;;;;;;;;;5003638;28;20037;-60
2022/10/07 12:10:42;;;;;;;;;;;;;;;;;;5000374;28;20088;-60
2022/10/07 12:13:08;;;;;;;3.70;1.05;;;;;;;;;;5003917;28;20324;-60
2022/10/07 12:15:41;;;;;;;2.75;0.60;;;;;;;;;;5005814;28;20045;-62
2022/10/07 12:18:06;;;;;;;3.83;1.45;;;;;;;;;;5005445;28;20048;-61
2022/10/07 12:20:50;;;;;;;2.35;0.80;;;;;;;;;;5009912;28;20046;-60
2022/10/07 12:23:21;;;;;;;4.50;0.80;;;;;;;;;;5010014;28;20060;-60
2022/10/07 12:25:49;;;;;;;1.98;0.80;;;;;;;;;;5009807;28;20541;-60
2022/10/07 12:28:39;;;;;;;3.70;1.00;;;;;;;;;;5005911;28;20101;-60
2022/10/07 12:31:13;;;;;;;4.28;0.90;;;;;;;;;;5002353;28;20042;-60
2022/10/07 12:33:45;;;;;;;4.28;0.90;;;;;;;;;;5008059;28;20050;-64
2022/10/07 12:36:26;;;;;;;2.67;0.80;;;;;;;;;;5010852;28;20042;-63
2022/10/07 12:38:55;;;;;;;2.17;0.70;;;;;;;;;;5010458;28;20038;-63
2022/10/07 12:41:24;;;;;;;2.92;1.00;;;;;;;;;;5009590;28;20462;-61
2022/10/07 12:44:05;;;;;;;4.82;0.82;;;;;;;;;;5009109;28;20054;-63
2022/10/07 12:46:41;;;;;;;2.92;1.00;;;;;;;;;;5008084;28;20049;-60
2022/10/07 12:49:28;;;;;;;3.00;1.33;;;;;;;;;;5008419;28;20072;-61
2022/10/07 12:51:56;;;;;;;2.80;0.88;;;;;;;;;;4996249;28;20034;-61
2022/10/07 12:54:35;;;;;;;5.47;1.00;;;;;;;;;;5006950;28;20033;-62
2022/10/07 12:57:01;;;;;;;2.65;0.80;;;;;;;;;;5008402;28;20493;-64
2022/10/07 12:59:57;;;;;;;2.90;1.17;;;;;;;;;;5010733;28;20038;-60
2022/10/07 13:02:35;;;;;;;7.45;0.88;;;;;;;;;;5009710;28;20053;-60
2022/10/07 13:05:34;;;;;;;4.15;0.98;;;;;;;;;;4995326;28;20103;-60
2022/10/07 13:08:11;;;;;;;3.92;0.90;;;;;;;;;;5003087;28;20050;-58
2022/10/07 13:10:49;;;;;;;3.70;0.90;;;;;;;;;;5003327;28;20390;-58
2022/10/07 13:13:25;;;;;;;4.28;0.77;;;;;;;;;;5008322;28;20045;-57
2022/10/07 13:16:07;;;;;;;3.70;0.88;;;;;;;;;;5021919;28;20042;-63
2022/10/07 13:18:51;;;;;;;3.28;0.98;;;;;;;;;;5006387;28;20556;-60
2022/10/07 13:21:21;;;;;;;2.95;0.80;;;;;;;;;;4993874;28;20429;-60
2022/10/07 13:23:51;;;;;;;3.67;1.17;;;;;;;;;;5022201;28;20038;-62
2022/10/07 13:26:18;;;;;;;8.23;0.80;;;;;;;;;;5010363;28;20041;-61
2022/10/07 13:28:48;;;;;;;2.50;0.80;;;;;;;;;;5009017;28;20367;-65
2022/10/07 13:31:13;;;;;;;1.60;0.70;;;;;;;;;;5010130;28;20460;-59
2022/10/07 13:33:39;;;;;;;1.88;0.60;;;;;;;;;;5001648;28;20041;-59
2022/10/07 13:36:15;;;;;;;2.50;0.70;;;;;;;;;;5001380;28;20084;-59
2022/10/07 13:38:41;;;;;;;2.58;0.77;;;;;;;;;;4995371;28;20038;-60
2022/10/07 13:41:18;;;;;;;2.03;0.70;;;;;;;;;;5009200;28;20029;-59
2022/10/07 13:43:44;;;;;;;5.32;0.88;;;;;;;;;;4992617;28;20046;-59
2022/10/07 13:46:09;;;;;;;3.22;0.90;;;;;;;;;;5000919;28;20519;-59
2022/10/07 13:48:37;;;;;;;7.70;0.90;;;;;;;;;;5008641;28;20045;-60
2022/10/07 13:51:04;;;;;;;3.22;0.85;;;;;;;;;;5009374;28;20034;-59
2022/10/07 13:53:36;;;;;;;3.75;0.80;;;;;;;;;;5008380;28;20030;-61
2022/10/07 13:56:08;;;;;;;2.40;0.90;;;;;;;;;;5009287;28;20359;-61
2022/10/07 13:58:33;;;;;;;7.25;0.98;;;;;;;;;;5008361;28;20053;-60
2022/10/07 14:01:02;;;;;;;10.07;1.25;;;;;;;;;;5009945;28;20397;-59
2022/10/07 14:03:27;;;;;;;3.70;1.00;;;;;;;;;;5008318;28;20022;-60
2022/10/07 14:05:53;;;;;;;4.25;0.95;;;;;;;;;;5008500;28;20057;-59
2022/10/07 14:08:26;;;;;;;4.60;0.90;;;;;;;;;;5007533;28;20100;-59
2022/10/07 14:11:05;;;;;;;1.85;0.70;;;;;;;;;;5003842;28;20119;-59
2022/10/07 14:13:31;;;;;;;2.75;0.80;;;;;;;;;;5009185;28;20045;-59
2022/10/07 14:15:57;;;;;;;2.25;0.77;;;;;;;;;;5006876;28;20376;-59
2022/10/07 14:18:23;;;;;;;3.30;0.93;;;;;;;;;;5008440;28;20578;-59
2022/10/07 14:21:16;;;;;;;3.70;0.73;;;;;;;;;;5003435;28;20075;-59
2022/10/07 14:23:42;;;;;;;5.93;0.80;;;;;;;;;;5005094;28;20038;-59
2022/10/07 14:26:09;;;;;;;3.72;1.08;;;;;;;;;;5004932;28;20113;-59
2022/10/07 14:28:36;;;;;;;4.20;0.80;;;;;;;;;;5006664;28;20038;-60
2022/10/07 14:37:04;;;;;;;3.30;0.80;;;;;;;;;;5005236;28;20120;-58
2022/10/07 14:39:38;;;;;;;2.30;0.60;;;;;;;;;;4992052;28;20065;-59
2022/10/07 14:42:13;;;;;;;3.50;0.80;;;;;;;;;;5005241;28;20069;-59
2022/10/07 14:44:40;;;;;;;3.15;0.80;;;;;;;;;;5006407;28;20512;-59
2022/10/07 14:47:11;;;;;;;2.83;1.23;;;;;;;;;;5007006;28;20092;-59
2022/10/07 14:49:36;;;;;;;3.97;0.95;;;;;;;;;;5011111;28;20129;-66
2022/10/07 14:52:02;;;;;;;1.58;0.60;;;;;;;;;;5012058;28;20140;-59
2022/10/07 14:54:29;;;;;;;3.38;0.80;;;;;;;;;;5003797;28;20029;-60
2022/10/07 14:56:55;;;;;;;6.88;1.10;;;;;;;;;;5007230;28;20053;-59
2022/10/07 14:59:21;;;;;;;4.30;0.90;;;;;;;;;;5010762;28;20034;-66
2022/10/07 15:01:50;;;;;;;6.80;1.00;;;;;;;;;;5012406;28;20041;-59
2022/10/07 15:04:15;;;;;;;4.75;1.00;;;;;;;;;;5012219;28;20485;-60
2022/10/07 15:06:41;;;;;;;2.00;0.82;;;;;;;;;;5006341;28;20112;-59
2022/10/07 15:09:09;;;;;;;2.60;0.77;;;;;;;;;;4993423;28;20030;-63
2022/10/07 15:11:34;;;;;;;1.85;0.77;;;;;;;;;;5008673;28;20046;-60
2022/10/07 15:14:00;;;;;;;2.38;0.98;;;;;;;;;;5012347;28;20030;-60
2022/10/07 15:16:26;;;;;;;3.20;1.00;;;;;;;;;;5012067;28;20037;-69